sensor_id;sensor_type;location;lat;lon;timestamp;temperature;humidity
43524;DHT22;29120;52.006;6.020;2022-11-14T00:02:17;6.90;91.80
43524;DHT22;29120;52.006;6.020;2022-11-14T00:04:46;6.90;91.90
43524;DHT22;29120;52.006;6.020;2022-11-14T00:07:12;6.80;92.00
43524;DHT22;29120;52.006;6.020;2022-11-14T00:09:37;6.80;92.10
43524;DHT22;29120;52.006;6.020;2022-11-14T00:12:05;6.80;92.20
43524;DHT22;29120;52.006;6.020;2022-11-14T00:14:30;6.70;92.30
43524;DHT22;29120;52.006;6.020;2022-11-14T00:16:56;6.70;92.40
43524;DHT22;29120;52.006;6.020;2022-11-14T00:19:21;6.70;92.40
43524;DHT22;29120;52.006;6.020;2022-11-14T00:21:47;6.70;92.40
43524;DHT22;29120;52.006;6.020;2022-11-14T00:24:13;6.70;92.50
43524;DHT22;29120;52.006;6.020;2022-11-14T00:26:38;6.70;92.50
43524;DHT22;29120;52.006;6.020;2022-11-14T00:29:04;6.60;92.50
43524;DHT22;29120;52.006;6.020;2022-11-14T00:31:29;6.60;92.60
43524;DHT22;29120;52.006;6.020;2022-11-14T00:33:55;6.60;92.70
43524;DHT22;29120;52.006;6.020;2022-11-14T00:36:20;6.60;92.70
43524;DHT22;29120;52.006;6.020;2022-11-14T00:38:46;6.60;92.80
43524;DHT22;29120;52.006;6.020;2022-11-14T00:41:11;6.50;92.90
43524;DHT22;29120;52.006;6.020;2022-11-14T00:43:37;6.50;93.00
43524;DHT22;29120;52.006;6.020;2022-11-14T00:46:03;6.40;93.20
43524;DHT22;29120;52.006;6.020;2022-11-14T00:48:28;6.40;93.20
43524;DHT22;29120;52.006;6.020;2022-11-14T00:50:54;6.40;93.30
43524;DHT22;29120;52.006;6.020;2022-11-14T00:53:19;6.40;93.30
43524;DHT22;29120;52.006;6.020;2022-11-14T00:55:45;6.30;93.40
43524;DHT22;29120;52.006;6.020;2022-11-14T00:58:10;6.30;93.40
43524;DHT22;29120;52.006;6.020;2022-11-14T01:00:37;6.30;93.50
43524;DHT22;29120;52.006;6.020;2022-11-14T01:03:02;6.30;93.50
43524;DHT22;29120;52.006;6.020;2022-11-14T01:05:28;6.20;93.50
43524;DHT22;29120;52.006;6.020;2022-11-14T01:07:54;6.20;93.50
43524;DHT22;29120;52.006;6.020;2022-11-14T01:10:20;6.20;93.60
43524;DHT22;29120;52.006;6.020;2022-11-14T01:12:46;6.20;93.60
43524;DHT22;29120;52.006;6.020;2022-11-14T01:15:11;6.20;93.60
43524;DHT22;29120;52.006;6.020;2022-11-14T01:17:37;6.20;93.70
43524;DHT22;29120;52.006;6.020;2022-11-14T01:20:03;6.20;93.80
43524;DHT22;29120;52.006;6.020;2022-11-14T01:22:29;6.10;93.80
43524;DHT22;29120;52.006;6.020;2022-11-14T01:24:55;6.10;93.90
43524;DHT22;29120;52.006;6.020;2022-11-14T01:27:23;6.10;94.00
43524;DHT22;29120;52.006;6.020;2022-11-14T01:29:49;6.10;94.00
43524;DHT22;29120;52.006;6.020;2022-11-14T01:32:14;6.10;94.00
43524;DHT22;29120;52.006;6.020;2022-11-14T01:34:40;6.00;94.10
43524;DHT22;29120;52.006;6.020;2022-11-14T01:37:06;6.00;94.10
43524;DHT22;29120;52.006;6.020;2022-11-14T01:39:31;6.00;94.10
43524;DHT22;29120;52.006;6.020;2022-11-14T01:41:57;6.00;94.20
43524;DHT22;29120;52.006;6.020;2022-11-14T01:44:46;6.00;94.20
43524;DHT22;29120;52.006;6.020;2022-11-14T01:47:17;6.00;94.30
43524;DHT22;29120;52.006;6.020;2022-11-14T01:49:46;5.90;94.30
43524;DHT22;29120;52.006;6.020;2022-11-14T01:52:13;5.90;94.40
43524;DHT22;29120;52.006;6.020;2022-11-14T01:54:49;5.90;94.50
43524;DHT22;29120;52.006;6.020;2022-11-14T01:57:19;5.90;94.50
43524;DHT22;29120;52.006;6.020;2022-11-14T01:59:50;5.90;94.60
43524;DHT22;29120;52.006;6.020;2022-11-14T02:02:18;5.80;94.60
43524;DHT22;29120;52.006;6.020;2022-11-14T02:04:50;5.80;94.70
43524;DHT22;29120;52.006;6.020;2022-11-14T02:07:18;5.80;94.70
43524;DHT22;29120;52.006;6.020;2022-11-14T02:09:45;5.80;94.70
43524;DHT22;29120;52.006;6.020;2022-11-14T02:14:50;5.70;94.80
43524;DHT22;29120;52.006;6.020;2022-11-14T02:17:17;5.70;94.80
43524;DHT22;29120;52.006;6.020;2022-11-14T02:19:45;5.70;94.90
43524;DHT22;29120;52.006;6.020;2022-11-14T02:22:11;5.70;94.90
43524;DHT22;29120;52.006;6.020;2022-11-14T02:24:36;5.70;94.90
43524;DHT22;29120;52.006;6.020;2022-11-14T02:27:04;5.60;94.90
43524;DHT22;29120;52.006;6.020;2022-11-14T02:29:31;5.60;95.00
43524;DHT22;29120;52.006;6.020;2022-11-14T02:31:57;5.60;95.10
43524;DHT22;29120;52.006;6.020;2022-11-14T02:34:23;5.60;95.20
43524;DHT22;29120;52.006;6.020;2022-11-14T02:36:48;5.60;95.20
43524;DHT22;29120;52.006;6.020;2022-11-14T02:39:14;5.60;95.30
43524;DHT22;29120;52.006;6.020;2022-11-14T02:41:39;5.50;95.30
43524;DHT22;29120;52.006;6.020;2022-11-14T02:44:05;5.50;95.30
43524;DHT22;29120;52.006;6.020;2022-11-14T02:46:31;5.50;95.40
43524;DHT22;29120;52.006;6.020;2022-11-14T02:48:56;5.50;95.40
43524;DHT22;29120;52.006;6.020;2022-11-14T02:51:22;5.50;95.40
43524;DHT22;29120;52.006;6.020;2022-11-14T02:53:47;5.50;95.50
43524;DHT22;29120;52.006;6.020;2022-11-14T02:56:13;5.50;95.60
43524;DHT22;29120;52.006;6.020;2022-11-14T02:58:39;5.50;95.60
43524;DHT22;29120;52.006;6.020;2022-11-14T03:01:04;5.50;95.60
43524;DHT22;29120;52.006;6.020;2022-11-14T03:03:30;5.40;95.60
43524;DHT22;29120;52.006;6.020;2022-11-14T03:05:59;5.40;95.70
43524;DHT22;29120;52.006;6.020;2022-11-14T03:08:25;5.40;95.80
43524;DHT22;29120;52.006;6.020;2022-11-14T03:10:51;5.40;95.80
43524;DHT22;29120;52.006;6.020;2022-11-14T03:13:17;5.40;95.80
43524;DHT22;29120;52.006;6.020;2022-11-14T03:15:42;5.30;95.90
43524;DHT22;29120;52.006;6.020;2022-11-14T03:18:08;5.40;95.90
43524;DHT22;29120;52.006;6.020;2022-11-14T03:20:34;5.30;95.90
43524;DHT22;29120;52.006;6.020;2022-11-14T03:22:59;5.30;96.00
43524;DHT22;29120;52.006;6.020;2022-11-14T03:25:25;5.30;96.00
43524;DHT22;29120;52.006;6.020;2022-11-14T03:27:51;5.30;96.00
43524;DHT22;29120;52.006;6.020;2022-11-14T03:30:16;5.30;96.00
43524;DHT22;29120;52.006;6.020;2022-11-14T03:32:42;5.30;96.10
43524;DHT22;29120;52.006;6.020;2022-11-14T03:35:08;5.30;96.10
43524;DHT22;29120;52.006;6.020;2022-11-14T03:37:34;5.20;96.10
43524;DHT22;29120;52.006;6.020;2022-11-14T03:40:00;5.20;96.10
43524;DHT22;29120;52.006;6.020;2022-11-14T03:42:25;5.20;96.20
43524;DHT22;29120;52.006;6.020;2022-11-14T03:44:51;5.20;96.20
43524;DHT22;29120;52.006;6.020;2022-11-14T03:47:16;5.20;96.20
43524;DHT22;29120;52.006;6.020;2022-11-14T03:49:42;5.20;96.30
43524;DHT22;29120;52.006;6.020;2022-11-14T03:52:10;5.20;96.30
43524;DHT22;29120;52.006;6.020;2022-11-14T03:54:36;5.10;96.30
43524;DHT22;29120;52.006;6.020;2022-11-14T03:57:02;5.10;96.40
43524;DHT22;29120;52.006;6.020;2022-11-14T03:59:27;5.10;96.40
43524;DHT22;29120;52.006;6.020;2022-11-14T04:01:53;5.10;96.40
43524;DHT22;29120;52.006;6.020;2022-11-14T04:04:19;5.10;96.40
43524;DHT22;29120;52.006;6.020;2022-11-14T04:06:45;5.10;96.50
43524;DHT22;29120;52.006;6.020;2022-11-14T04:09:11;5.10;96.50
43524;DHT22;29120;52.006;6.020;2022-11-14T04:11:37;5.10;96.50
43524;DHT22;29120;52.006;6.020;2022-11-14T04:14:02;5.10;96.50
43524;DHT22;29120;52.006;6.020;2022-11-14T04:16:28;5.10;96.50
43524;DHT22;29120;52.006;6.020;2022-11-14T04:18:53;5.00;96.60
43524;DHT22;29120;52.006;6.020;2022-11-14T04:21:19;5.00;96.60
43524;DHT22;29120;52.006;6.020;2022-11-14T04:23:44;5.00;96.60
43524;DHT22;29120;52.006;6.020;2022-11-14T04:26:10;5.00;96.60
43524;DHT22;29120;52.006;6.020;2022-11-14T04:28:35;5.00;96.70
43524;DHT22;29120;52.006;6.020;2022-11-14T04:31:01;4.90;96.70
43524;DHT22;29120;52.006;6.020;2022-11-14T04:33:27;5.00;96.80
43524;DHT22;29120;52.006;6.020;2022-11-14T04:35:52;4.90;96.80
43524;DHT22;29120;52.006;6.020;2022-11-14T04:38:18;4.90;96.80
43524;DHT22;29120;52.006;6.020;2022-11-14T04:40:52;4.90;96.80
43524;DHT22;29120;52.006;6.020;2022-11-14T04:43:19;4.90;96.90
43524;DHT22;29120;52.006;6.020;2022-11-14T04:45:45;4.90;96.90
43524;DHT22;29120;52.006;6.020;2022-11-14T04:48:11;4.90;96.90
43524;DHT22;29120;52.006;6.020;2022-11-14T04:50:37;4.90;96.90
43524;DHT22;29120;52.006;6.020;2022-11-14T04:53:03;4.90;96.90
43524;DHT22;29120;52.006;6.020;2022-11-14T04:55:28;4.90;96.90
43524;DHT22;29120;52.006;6.020;2022-11-14T04:57:55;4.90;96.90
43524;DHT22;29120;52.006;6.020;2022-11-14T05:00:21;4.90;97.00
43524;DHT22;29120;52.006;6.020;2022-11-14T05:02:47;4.80;96.90
43524;DHT22;29120;52.006;6.020;2022-11-14T05:05:12;4.80;97.00
43524;DHT22;29120;52.006;6.020;2022-11-14T05:07:38;4.80;97.00
43524;DHT22;29120;52.006;6.020;2022-11-14T05:10:04;4.80;97.00
43524;DHT22;29120;52.006;6.020;2022-11-14T05:12:29;4.80;97.10
43524;DHT22;29120;52.006;6.020;2022-11-14T05:14:55;4.80;97.10
43524;DHT22;29120;52.006;6.020;2022-11-14T05:17:21;4.80;97.10
43524;DHT22;29120;52.006;6.020;2022-11-14T05:19:46;4.80;97.10
43524;DHT22;29120;52.006;6.020;2022-11-14T05:22:12;4.70;97.10
43524;DHT22;29120;52.006;6.020;2022-11-14T05:24:37;4.70;97.10
43524;DHT22;29120;52.006;6.020;2022-11-14T05:27:03;4.70;97.20
43524;DHT22;29120;52.006;6.020;2022-11-14T05:29:28;4.70;97.20
43524;DHT22;29120;52.006;6.020;2022-11-14T05:31:54;4.70;97.20
43524;DHT22;29120;52.006;6.020;2022-11-14T05:34:19;4.70;97.20
43524;DHT22;29120;52.006;6.020;2022-11-14T05:36:45;4.70;97.20
43524;DHT22;29120;52.006;6.020;2022-11-14T05:39:10;4.70;97.20
43524;DHT22;29120;52.006;6.020;2022-11-14T05:41:36;4.70;97.20
43524;DHT22;29120;52.006;6.020;2022-11-14T05:44:05;4.70;97.30
43524;DHT22;29120;52.006;6.020;2022-11-14T05:46:30;4.70;97.30
43524;DHT22;29120;52.006;6.020;2022-11-14T05:48:56;4.60;97.30
43524;DHT22;29120;52.006;6.020;2022-11-14T05:51:21;4.70;97.30
43524;DHT22;29120;52.006;6.020;2022-11-14T05:53:47;4.60;97.30
43524;DHT22;29120;52.006;6.020;2022-11-14T05:56:12;4.60;97.30
43524;DHT22;29120;52.006;6.020;2022-11-14T05:58:38;4.60;97.40
43524;DHT22;29120;52.006;6.020;2022-11-14T06:01:18;4.60;97.40
43524;DHT22;29120;52.006;6.020;2022-11-14T06:03:45;4.60;97.70
43524;DHT22;29120;52.006;6.020;2022-11-14T06:06:17;4.60;97.50
43524;DHT22;29120;52.006;6.020;2022-11-14T06:08:44;4.60;97.60
43524;DHT22;29120;52.006;6.020;2022-11-14T06:11:12;4.50;97.50
43524;DHT22;29120;52.006;6.020;2022-11-14T06:13:38;4.60;97.50
43524;DHT22;29120;52.006;6.020;2022-11-14T06:16:07;4.50;97.50
43524;DHT22;29120;52.006;6.020;2022-11-14T06:18:34;4.50;97.60
43524;DHT22;29120;52.006;6.020;2022-11-14T06:21:17;4.50;97.60
43524;DHT22;29120;52.006;6.020;2022-11-14T06:23:44;4.50;97.60
43524;DHT22;29120;52.006;6.020;2022-11-14T06:26:21;4.50;97.70
43524;DHT22;29120;52.006;6.020;2022-11-14T06:28:48;4.40;97.70
43524;DHT22;29120;52.006;6.020;2022-11-14T06:31:14;4.40;97.70
43524;DHT22;29120;52.006;6.020;2022-11-14T06:33:39;4.40;97.70
43524;DHT22;29120;52.006;6.020;2022-11-14T06:36:06;4.40;97.70
43524;DHT22;29120;52.006;6.020;2022-11-14T06:38:34;4.40;97.70
43524;DHT22;29120;52.006;6.020;2022-11-14T06:41:01;4.30;97.70
43524;DHT22;29120;52.006;6.020;2022-11-14T06:43:27;4.30;97.70
43524;DHT22;29120;52.006;6.020;2022-11-14T06:45:53;4.30;97.80
43524;DHT22;29120;52.006;6.020;2022-11-14T06:48:19;4.30;97.80
43524;DHT22;29120;52.006;6.020;2022-11-14T06:50:54;4.30;97.80
43524;DHT22;29120;52.006;6.020;2022-11-14T06:53:20;4.20;97.80
43524;DHT22;29120;52.006;6.020;2022-11-14T06:56:03;4.30;97.80
43524;DHT22;29120;52.006;6.020;2022-11-14T06:58:37;4.30;97.90
43524;DHT22;29120;52.006;6.020;2022-11-14T07:01:09;4.20;97.80
43524;DHT22;29120;52.006;6.020;2022-11-14T07:03:35;4.20;97.90
43524;DHT22;29120;52.006;6.020;2022-11-14T07:06:02;4.30;97.90
43524;DHT22;29120;52.006;6.020;2022-11-14T07:08:28;4.20;97.80
43524;DHT22;29120;52.006;6.020;2022-11-14T07:10:53;4.30;97.80
43524;DHT22;29120;52.006;6.020;2022-11-14T07:13:24;4.30;97.80
43524;DHT22;29120;52.006;6.020;2022-11-14T07:15:54;4.30;97.90
43524;DHT22;29120;52.006;6.020;2022-11-14T07:18:20;4.30;97.80
43524;DHT22;29120;52.006;6.020;2022-11-14T07:20:46;4.30;97.80
43524;DHT22;29120;52.006;6.020;2022-11-14T07:23:12;4.30;97.90
43524;DHT22;29120;52.006;6.020;2022-11-14T07:25:37;4.30;97.90
43524;DHT22;29120;52.006;6.020;2022-11-14T07:28:03;4.30;97.90
43524;DHT22;29120;52.006;6.020;2022-11-14T07:30:29;4.30;97.90
43524;DHT22;29120;52.006;6.020;2022-11-14T07:32:58;4.40;97.90
43524;DHT22;29120;52.006;6.020;2022-11-14T07:35:24;4.40;97.90
43524;DHT22;29120;52.006;6.020;2022-11-14T07:37:50;4.40;97.90
43524;DHT22;29120;52.006;6.020;2022-11-14T07:40:16;4.40;97.90
43524;DHT22;29120;52.006;6.020;2022-11-14T07:42:42;4.50;98.00
43524;DHT22;29120;52.006;6.020;2022-11-14T07:45:09;4.50;97.90
43524;DHT22;29120;52.006;6.020;2022-11-14T07:47:35;4.50;97.90
43524;DHT22;29120;52.006;6.020;2022-11-14T07:50:00;4.50;97.90
43524;DHT22;29120;52.006;6.020;2022-11-14T07:52:26;4.50;97.90
43524;DHT22;29120;52.006;6.020;2022-11-14T07:54:51;4.60;97.90
43524;DHT22;29120;52.006;6.020;2022-11-14T07:57:17;4.60;97.90
43524;DHT22;29120;52.006;6.020;2022-11-14T07:59:42;4.70;97.90
43524;DHT22;29120;52.006;6.020;2022-11-14T08:02:12;4.70;97.80
43524;DHT22;29120;52.006;6.020;2022-11-14T08:04:39;4.70;97.80
43524;DHT22;29120;52.006;6.020;2022-11-14T08:07:05;4.70;97.80
43524;DHT22;29120;52.006;6.020;2022-11-14T08:09:30;4.80;97.80
43524;DHT22;29120;52.006;6.020;2022-11-14T08:11:56;4.80;97.80
43524;DHT22;29120;52.006;6.020;2022-11-14T08:14:21;4.80;97.80
43524;DHT22;29120;52.006;6.020;2022-11-14T08:16:47;4.90;97.80
43524;DHT22;29120;52.006;6.020;2022-11-14T08:19:14;4.90;97.80
43524;DHT22;29120;52.006;6.020;2022-11-14T08:21:41;4.90;97.70
43524;DHT22;29120;52.006;6.020;2022-11-14T08:24:07;5.00;97.70
43524;DHT22;29120;52.006;6.020;2022-11-14T08:26:32;5.00;97.60
43524;DHT22;29120;52.006;6.020;2022-11-14T08:28:58;5.10;97.60
43524;DHT22;29120;52.006;6.020;2022-11-14T08:31:23;5.10;97.90
43524;DHT22;29120;52.006;6.020;2022-11-14T08:33:50;5.10;97.60
43524;DHT22;29120;52.006;6.020;2022-11-14T08:36:16;5.20;97.60
43524;DHT22;29120;52.006;6.020;2022-11-14T08:38:42;5.20;97.60
43524;DHT22;29120;52.006;6.020;2022-11-14T08:41:08;5.20;97.50
43524;DHT22;29120;52.006;6.020;2022-11-14T08:43:33;5.20;97.50
43524;DHT22;29120;52.006;6.020;2022-11-14T08:46:01;5.20;97.50
43524;DHT22;29120;52.006;6.020;2022-11-14T08:48:26;5.30;97.50
43524;DHT22;29120;52.006;6.020;2022-11-14T08:50:52;5.30;97.40
43524;DHT22;29120;52.006;6.020;2022-11-14T08:53:18;5.40;97.40
43524;DHT22;29120;52.006;6.020;2022-11-14T08:55:47;5.40;97.40
43524;DHT22;29120;52.006;6.020;2022-11-14T08:58:13;5.50;97.30
43524;DHT22;29120;52.006;6.020;2022-11-14T09:00:39;5.50;97.20
43524;DHT22;29120;52.006;6.020;2022-11-14T09:03:12;5.60;97.20
43524;DHT22;29120;52.006;6.020;2022-11-14T09:05:39;5.60;97.20
43524;DHT22;29120;52.006;6.020;2022-11-14T09:08:05;5.60;97.20
43524;DHT22;29120;52.006;6.020;2022-11-14T09:10:31;5.60;97.20
43524;DHT22;29120;52.006;6.020;2022-11-14T09:12:57;5.60;97.20
43524;DHT22;29120;52.006;6.020;2022-11-14T09:15:24;5.70;97.20
43524;DHT22;29120;52.006;6.020;2022-11-14T09:17:53;5.80;97.20
43524;DHT22;29120;52.006;6.020;2022-11-14T09:20:19;5.80;97.10
43524;DHT22;29120;52.006;6.020;2022-11-14T09:22:45;5.90;97.10
43524;DHT22;29120;52.006;6.020;2022-11-14T09:25:10;5.90;97.00
43524;DHT22;29120;52.006;6.020;2022-11-14T09:27:36;6.00;97.00
43524;DHT22;29120;52.006;6.020;2022-11-14T09:30:02;6.00;97.00
43524;DHT22;29120;52.006;6.020;2022-11-14T09:32:27;6.00;96.90
43524;DHT22;29120;52.006;6.020;2022-11-14T09:34:53;6.10;96.90
43524;DHT22;29120;52.006;6.020;2022-11-14T09:37:18;6.20;96.90
43524;DHT22;29120;52.006;6.020;2022-11-14T09:39:44;6.50;97.20
43524;DHT22;29120;52.006;6.020;2022-11-14T09:47:15;7.70;95.30
43524;DHT22;29120;52.006;6.020;2022-11-14T09:49:44;7.60;95.30
43524;DHT22;29120;52.006;6.020;2022-11-14T09:52:33;7.60;95.50
43524;DHT22;29120;52.006;6.020;2022-11-14T09:55:13;7.70;95.50
43524;DHT22;29120;52.006;6.020;2022-11-14T09:57:43;7.70;95.40
43524;DHT22;29120;52.006;6.020;2022-11-14T10:00:16;7.60;95.50
43524;DHT22;29120;52.006;6.020;2022-11-14T10:05:31;7.50;95.60
43524;DHT22;29120;52.006;6.020;2022-11-14T10:08:19;7.60;95.60
43524;DHT22;29120;52.006;6.020;2022-11-14T10:10:55;7.60;95.60
43524;DHT22;29120;52.006;6.020;2022-11-14T10:18:53;7.80;95.60
43524;DHT22;29120;52.006;6.020;2022-11-14T10:26:37;11.30;93.10
43524;DHT22;29120;52.006;6.020;2022-11-14T10:29:32;13.00;90.80
43524;DHT22;29120;52.006;6.020;2022-11-14T10:35:27;14.10;88.50
43524;DHT22;29120;52.006;6.020;2022-11-14T10:37:56;14.50;88.40
43524;DHT22;29120;52.006;6.020;2022-11-14T10:40:39;15.30;88.40
43524;DHT22;29120;52.006;6.020;2022-11-14T10:43:20;16.30;84.20
43524;DHT22;29120;52.006;6.020;2022-11-14T10:46:01;17.30;80.30
43524;DHT22;29120;52.006;6.020;2022-11-14T10:48:31;17.60;74.90
43524;DHT22;29120;52.006;6.020;2022-11-14T10:51:04;17.70;72.00
43524;DHT22;29120;52.006;6.020;2022-11-14T10:53:59;17.70;71.20
43524;DHT22;29120;52.006;6.020;2022-11-14T10:56:26;18.00;67.40
43524;DHT22;29120;52.006;6.020;2022-11-14T10:58:52;18.30;67.80
43524;DHT22;29120;52.006;6.020;2022-11-14T11:04:30;19.60;64.80
43524;DHT22;29120;52.006;6.020;2022-11-14T11:07:16;19.60;63.30
43524;DHT22;29120;52.006;6.020;2022-11-14T11:10:22;19.60;61.60
43524;DHT22;29120;52.006;6.020;2022-11-14T11:13:11;19.30;62.30
43524;DHT22;29120;52.006;6.020;2022-11-14T11:15:39;19.20;62.00
43524;DHT22;29120;52.006;6.020;2022-11-14T11:21:12;18.10;61.80
43524;DHT22;29120;52.006;6.020;2022-11-14T11:23:54;16.60;62.80
43524;DHT22;29120;52.006;6.020;2022-11-14T11:26:28;15.20;66.30
43524;DHT22;29120;52.006;6.020;2022-11-14T11:29:01;13.90;69.20
43524;DHT22;29120;52.006;6.020;2022-11-14T11:31:27;13.00;72.20
43524;DHT22;29120;52.006;6.020;2022-11-14T11:33:53;12.40;74.60
43524;DHT22;29120;52.006;6.020;2022-11-14T11:36:22;12.10;76.40
43524;DHT22;29120;52.006;6.020;2022-11-14T11:38:48;11.60;78.50
43524;DHT22;29120;52.006;6.020;2022-11-14T11:41:32;11.20;80.70
43524;DHT22;29120;52.006;6.020;2022-11-14T11:44:04;10.80;82.40
43524;DHT22;29120;52.006;6.020;2022-11-14T11:46:46;10.60;83.60
43524;DHT22;29120;52.006;6.020;2022-11-14T11:49:22;10.50;84.50
43524;DHT22;29120;52.006;6.020;2022-11-14T11:51:52;10.40;85.30
43524;DHT22;29120;52.006;6.020;2022-11-14T11:54:20;10.30;85.30
43524;DHT22;29120;52.006;6.020;2022-11-14T11:56:53;10.30;85.60
43524;DHT22;29120;52.006;6.020;2022-11-14T11:59:42;10.30;86.70
43524;DHT22;29120;52.006;6.020;2022-11-14T12:04:50;10.00;87.60
43524;DHT22;29120;52.006;6.020;2022-11-14T12:07:23;9.90;88.20
43524;DHT22;29120;52.006;6.020;2022-11-14T12:09:55;9.90;88.70
43524;DHT22;29120;52.006;6.020;2022-11-14T12:13:03;9.80;89.10
43524;DHT22;29120;52.006;6.020;2022-11-14T12:18:21;9.80;90.00
43524;DHT22;29120;52.006;6.020;2022-11-14T12:21:11;9.80;90.00
43524;DHT22;29120;52.006;6.020;2022-11-14T12:23:51;9.70;90.00
43524;DHT22;29120;52.006;6.020;2022-11-14T12:29:24;9.70;90.20
43524;DHT22;29120;52.006;6.020;2022-11-14T12:31:57;9.70;90.30
43524;DHT22;29120;52.006;6.020;2022-11-14T12:34:27;9.60;90.40
43524;DHT22;29120;52.006;6.020;2022-11-14T12:36:55;9.70;90.40
43524;DHT22;29120;52.006;6.020;2022-11-14T12:39:27;9.60;90.40
43524;DHT22;29120;52.006;6.020;2022-11-14T12:42:04;9.70;90.50
43524;DHT22;29120;52.006;6.020;2022-11-14T12:44:32;9.70;90.50
43524;DHT22;29120;52.006;6.020;2022-11-14T12:58:03;9.60;90.90
43524;DHT22;29120;52.006;6.020;2022-11-14T13:00:32;9.60;91.00
43524;DHT22;29120;52.006;6.020;2022-11-14T13:11:31;9.60;91.10
43524;DHT22;29120;52.006;6.020;2022-11-14T13:14:18;9.60;91.10
43524;DHT22;29120;52.006;6.020;2022-11-14T13:19:53;9.60;91.20
43524;DHT22;29120;52.006;6.020;2022-11-14T13:22:43;9.50;91.20
43524;DHT22;29120;52.006;6.020;2022-11-14T13:27:35;9.40;91.20
43524;DHT22;29120;52.006;6.020;2022-11-14T13:30:04;9.40;91.40
43524;DHT22;29120;52.006;6.020;2022-11-14T13:35:33;9.30;91.60
43524;DHT22;29120;52.006;6.020;2022-11-14T13:51:52;9.20;92.40
43524;DHT22;29120;52.006;6.020;2022-11-14T13:54:21;9.20;92.40
43524;DHT22;29120;52.006;6.020;2022-11-14T13:57:06;9.20;92.40
43524;DHT22;29120;52.006;6.020;2022-11-14T14:08:36;9.20;92.70
43524;DHT22;29120;52.006;6.020;2022-11-14T14:16:21;9.20;92.90
43524;DHT22;29120;52.006;6.020;2022-11-14T14:19:21;9.20;93.00
43524;DHT22;29120;52.006;6.020;2022-11-14T14:22:04;9.20;93.20
43524;DHT22;29120;52.006;6.020;2022-11-14T14:27:33;9.10;93.40
43524;DHT22;29120;52.006;6.020;2022-11-14T14:30:10;9.10;93.60
43524;DHT22;29120;52.006;6.020;2022-11-14T14:32:36;9.10;93.70
43524;DHT22;29120;52.006;6.020;2022-11-14T14:35:25;9.10;93.80
43524;DHT22;29120;52.006;6.020;2022-11-14T14:37:52;9.10;93.80
43524;DHT22;29120;52.006;6.020;2022-11-14T14:40:39;9.10;93.80
43524;DHT22;29120;52.006;6.020;2022-11-14T14:43:05;9.10;93.80
43524;DHT22;29120;52.006;6.020;2022-11-14T14:45:48;9.10;93.80
43524;DHT22;29120;52.006;6.020;2022-11-14T14:48:21;9.20;93.80
43524;DHT22;29120;52.006;6.020;2022-11-14T14:50:50;9.20;93.90
43524;DHT22;29120;52.006;6.020;2022-11-14T14:53:21;9.20;93.90
43524;DHT22;29120;52.006;6.020;2022-11-14T14:55:56;9.20;93.90
43524;DHT22;29120;52.006;6.020;2022-11-14T15:01:00;9.20;94.00
43524;DHT22;29120;52.006;6.020;2022-11-14T15:03:31;9.20;94.00
43524;DHT22;29120;52.006;6.020;2022-11-14T15:06:02;9.20;94.10
43524;DHT22;29120;52.006;6.020;2022-11-14T15:08:29;9.20;94.10
43524;DHT22;29120;52.006;6.020;2022-11-14T15:10:58;9.20;94.10
43524;DHT22;29120;52.006;6.020;2022-11-14T15:13:26;9.20;94.10
43524;DHT22;29120;52.006;6.020;2022-11-14T15:15:53;9.30;94.20
43524;DHT22;29120;52.006;6.020;2022-11-14T15:18:30;9.30;94.20
43524;DHT22;29120;52.006;6.020;2022-11-14T15:21:27;9.30;94.20
43524;DHT22;29120;52.006;6.020;2022-11-14T15:24:14;9.30;94.30
43524;DHT22;29120;52.006;6.020;2022-11-14T15:26:42;9.30;94.30
43524;DHT22;29120;52.006;6.020;2022-11-14T15:29:20;9.30;94.40
43524;DHT22;29120;52.006;6.020;2022-11-14T15:31:54;9.30;94.40
43524;DHT22;29120;52.006;6.020;2022-11-14T15:37:17;9.30;94.40
43524;DHT22;29120;52.006;6.020;2022-11-14T15:39:45;9.30;94.50
43524;DHT22;29120;52.006;6.020;2022-11-14T15:42:31;9.30;94.60
43524;DHT22;29120;52.006;6.020;2022-11-14T15:44:56;9.30;94.70
43524;DHT22;29120;52.006;6.020;2022-11-14T15:47:24;9.30;94.90
43524;DHT22;29120;52.006;6.020;2022-11-14T15:52:42;9.20;94.80
43524;DHT22;29120;52.006;6.020;2022-11-14T15:55:16;9.20;94.80
43524;DHT22;29120;52.006;6.020;2022-11-14T15:57:42;9.30;94.90
43524;DHT22;29120;52.006;6.020;2022-11-14T16:00:15;9.30;94.90
43524;DHT22;29120;52.006;6.020;2022-11-14T16:05:12;9.30;94.90
43524;DHT22;29120;52.006;6.020;2022-11-14T16:07:39;9.30;94.90
43524;DHT22;29120;52.006;6.020;2022-11-14T16:10:33;9.30;94.80
43524;DHT22;29120;52.006;6.020;2022-11-14T16:12:59;9.30;94.80
43524;DHT22;29120;52.006;6.020;2022-11-14T16:15:24;9.30;94.90
43524;DHT22;29120;52.006;6.020;2022-11-14T16:17:50;9.30;94.90
43524;DHT22;29120;52.006;6.020;2022-11-14T16:20:18;9.30;95.00
43524;DHT22;29120;52.006;6.020;2022-11-14T16:22:45;9.30;95.00
43524;DHT22;29120;52.006;6.020;2022-11-14T16:25:29;9.30;95.00
43524;DHT22;29120;52.006;6.020;2022-11-14T16:27:55;9.20;95.10
43524;DHT22;29120;52.006;6.020;2022-11-14T16:30:22;9.20;95.10
43524;DHT22;29120;52.006;6.020;2022-11-14T16:32:49;9.20;95.40
43524;DHT22;29120;52.006;6.020;2022-11-14T16:37:46;9.20;95.20
43524;DHT22;29120;52.006;6.020;2022-11-14T16:40:15;9.10;95.10
43524;DHT22;29120;52.006;6.020;2022-11-14T16:42:41;9.10;95.30
43524;DHT22;29120;52.006;6.020;2022-11-14T16:45:07;9.00;95.40
43524;DHT22;29120;52.006;6.020;2022-11-14T16:47:33;9.00;95.60
43524;DHT22;29120;52.006;6.020;2022-11-14T16:49:59;8.90;95.90
43524;DHT22;29120;52.006;6.020;2022-11-14T16:52:25;9.00;95.80
43524;DHT22;29120;52.006;6.020;2022-11-14T16:54:51;9.00;95.80
43524;DHT22;29120;52.006;6.020;2022-11-14T16:57:16;9.10;95.80
43524;DHT22;29120;52.006;6.020;2022-11-14T16:59:42;9.10;95.70
43524;DHT22;29120;52.006;6.020;2022-11-14T17:02:13;9.20;95.80
43524;DHT22;29120;52.006;6.020;2022-11-14T17:04:43;9.20;95.80
43524;DHT22;29120;52.006;6.020;2022-11-14T17:07:12;9.30;95.80
43524;DHT22;29120;52.006;6.020;2022-11-14T17:09:38;9.20;95.80
43524;DHT22;29120;52.006;6.020;2022-11-14T17:12:04;9.20;95.80
43524;DHT22;29120;52.006;6.020;2022-11-14T17:14:30;9.30;95.80
43524;DHT22;29120;52.006;6.020;2022-11-14T17:16:55;9.30;95.80
43524;DHT22;29120;52.006;6.020;2022-11-14T17:19:21;9.30;96.10
43524;DHT22;29120;52.006;6.020;2022-11-14T17:21:47;9.30;95.80
43524;DHT22;29120;52.006;6.020;2022-11-14T17:24:13;9.30;95.80
43524;DHT22;29120;52.006;6.020;2022-11-14T17:26:38;9.40;95.80
43524;DHT22;29120;52.006;6.020;2022-11-14T17:29:05;9.40;95.80
43524;DHT22;29120;52.006;6.020;2022-11-14T17:31:32;9.40;95.80
43524;DHT22;29120;52.006;6.020;2022-11-14T17:33:58;9.40;95.70
43524;DHT22;29120;52.006;6.020;2022-11-14T17:36:25;9.40;95.80
43524;DHT22;29120;52.006;6.020;2022-11-14T17:38:52;9.30;95.80
43524;DHT22;29120;52.006;6.020;2022-11-14T17:41:18;9.40;95.80
43524;DHT22;29120;52.006;6.020;2022-11-14T17:43:43;9.40;95.80
43524;DHT22;29120;52.006;6.020;2022-11-14T17:46:10;9.40;96.10
43524;DHT22;29120;52.006;6.020;2022-11-14T17:48:36;9.40;95.80